createdAt,value
2017-10-11T00:00:46.399Z,15.35
2017-10-11T00:03:17.398Z,15.35
2017-10-11T00:05:48.373Z,15.37
2017-10-11T00:08:22.135Z,15.36
2017-10-11T00:10:53.433Z,15.36
2017-10-11T00:13:24.582Z,15.36
2017-10-11T00:15:55.871Z,15.37
2017-10-11T00:18:28.180Z,15.36
2017-10-11T00:21:03.224Z,15.36
2017-10-11T00:23:36.405Z,15.35
2017-10-11T00:26:12.650Z,15.33
2017-10-11T00:28:44.858Z,15.33
2017-10-11T00:31:16.439Z,15.34
2017-10-11T00:33:48.022Z,15.35
2017-10-11T00:36:21.160Z,15.36
2017-10-11T00:38:52.194Z,15.39
2017-10-11T00:41:23.579Z,15.38
2017-10-11T00:43:55.741Z,15.40
2017-10-11T00:46:28.451Z,15.39
2017-10-11T00:49:01.081Z,15.39
2017-10-11T00:51:33.366Z,15.40
2017-10-11T00:54:08.882Z,15.41
2017-10-11T00:56:41.387Z,15.39
2017-10-11T00:59:14.526Z,15.38
2017-10-11T01:01:51.449Z,15.38
2017-10-11T01:04:30.999Z,15.37
2017-10-11T01:07:12.757Z,15.36
2017-10-11T01:09:46.766Z,15.35
2017-10-11T01:12:22.076Z,15.36
2017-10-11T01:14:54.885Z,15.36
2017-10-11T01:17:29.121Z,15.36
2017-10-11T01:20:03.358Z,15.36
2017-10-11T01:22:38.998Z,15.34
2017-10-11T01:25:14.211Z,15.33
2017-10-11T01:27:53.603Z,15.29
2017-10-11T01:30:26.763Z,15.25
2017-10-11T01:33:00.473Z,15.17
2017-10-11T01:35:36.924Z,15.08
2017-10-11T01:38:18.805Z,15.02
2017-10-11T01:40:58.488Z,14.96
2017-10-11T01:43:40.828Z,14.93
2017-10-11T01:46:18.033Z,14.95
2017-10-11T01:48:54.140Z,14.95
2017-10-11T01:51:26.263Z,14.93
2017-10-11T01:53:57.842Z,14.87
2017-10-11T01:56:32.872Z,14.81
2017-10-11T02:01:42.136Z,14.76
2017-10-11T02:04:14.508Z,14.77
2017-10-11T02:06:47.000Z,14.74
2017-10-11T02:09:22.411Z,14.73
2017-10-11T02:11:55.872Z,14.73
2017-10-11T02:14:28.089Z,14.77
2017-10-11T02:17:00.472Z,14.81
2017-10-11T02:19:36.621Z,14.87
2017-10-11T02:22:08.805Z,14.90
2017-10-11T02:24:41.364Z,14.93
2017-10-11T02:27:14.122Z,14.95
2017-10-11T02:29:46.128Z,14.98
2017-10-11T02:32:18.482Z,14.99
2017-10-11T02:34:50.742Z,15.01
2017-10-11T02:37:24.775Z,15.03
2017-10-11T02:39:58.704Z,15.04
2017-10-11T02:42:32.257Z,15.04
2017-10-11T02:45:04.184Z,15.06
2017-10-11T02:47:37.569Z,15.06
2017-10-11T02:50:12.327Z,15.02
2017-10-11T02:52:44.378Z,15.02
2017-10-11T02:55:17.240Z,15.02
2017-10-11T02:57:50.391Z,15.01
2017-10-11T03:00:22.465Z,15.01
2017-10-11T03:02:55.876Z,14.99
2017-10-11T03:05:27.975Z,15.00
2017-10-11T03:08:03.619Z,15.01
2017-10-11T03:10:38.567Z,15.01
2017-10-11T03:13:10.612Z,15.02
2017-10-11T03:15:43.716Z,15.03
2017-10-11T03:18:16.223Z,15.04
2017-10-11T03:20:48.383Z,15.04
2017-10-11T03:23:20.977Z,15.04
2017-10-11T03:25:53.242Z,15.05
2017-10-11T03:28:25.287Z,15.07
2017-10-11T03:30:57.645Z,15.08
2017-10-11T03:33:30.644Z,15.09
2017-10-11T03:36:04.174Z,15.10
2017-10-11T03:38:38.349Z,15.12
2017-10-11T03:41:11.949Z,15.14
2017-10-11T03:43:44.182Z,15.15
2017-10-11T03:46:16.125Z,15.16
2017-10-11T03:48:48.398Z,15.17
2017-10-11T03:51:20.769Z,15.19
2017-10-11T03:53:53.040Z,15.18
2017-10-11T03:56:25.710Z,15.19
2017-10-11T03:58:57.713Z,15.17
2017-10-11T04:01:30.549Z,15.15
2017-10-11T04:04:05.816Z,15.12
2017-10-11T04:06:41.966Z,15.12
2017-10-11T04:09:20.930Z,15.10
2017-10-11T04:11:55.522Z,15.08
2017-10-11T04:14:29.973Z,15.09
2017-10-11T04:17:04.784Z,15.10
2017-10-11T04:19:39.740Z,15.11
2017-10-11T04:22:16.539Z,15.12
2017-10-11T04:24:50.996Z,15.13
2017-10-11T04:27:25.514Z,15.13
2017-10-11T04:29:59.464Z,15.12
2017-10-11T04:32:30.726Z,15.12
2017-10-11T04:35:03.200Z,15.14
2017-10-11T04:37:39.176Z,15.13
2017-10-11T04:40:11.562Z,15.11
2017-10-11T04:42:46.380Z,15.05
2017-10-11T04:45:17.838Z,14.94
2017-10-11T04:47:50.678Z,14.80
2017-10-11T04:50:26.344Z,14.69
2017-10-11T04:53:01.153Z,14.61
2017-10-11T04:55:34.644Z,14.52
2017-10-11T04:58:05.783Z,14.45
2017-10-11T05:00:37.396Z,14.38
2017-10-11T05:03:08.544Z,14.30
2017-10-11T05:05:41.186Z,14.26
2017-10-11T05:08:12.737Z,14.20
2017-10-11T05:10:46.361Z,14.15
2017-10-11T05:13:18.170Z,14.08
2017-10-11T05:15:50.440Z,14.06
2017-10-11T05:18:22.229Z,14.06
2017-10-11T05:21:04.030Z,14.04
2017-10-11T05:23:40.366Z,14.03
2017-10-11T05:26:11.890Z,14.02
2017-10-11T05:28:43.952Z,13.99
2017-10-11T05:34:44.168Z,14.04
2017-10-11T05:40:17.155Z,14.07
2017-10-11T05:43:07.305Z,14.06
2017-10-11T05:45:39.342Z,14.02
2017-10-11T05:48:11.272Z,13.98
2017-10-11T05:53:44.939Z,13.98
2017-10-11T06:03:01.754Z,14.13
2017-10-11T06:05:44.974Z,14.19
2017-10-11T06:12:04.229Z,14.32
2017-10-11T06:14:53.584Z,14.37
2017-10-11T06:17:28.948Z,14.42
2017-10-11T06:22:46.415Z,14.51
2017-10-11T06:25:18.367Z,14.54
2017-10-11T06:27:51.705Z,14.59
2017-10-11T06:33:35.196Z,14.63
2017-10-11T06:36:07.276Z,14.67
2017-10-11T06:38:40.661Z,14.67
2017-10-11T06:41:13.143Z,14.65
2017-10-11T06:43:45.627Z,14.63
2017-10-11T06:46:24.352Z,14.65
2017-10-11T06:48:57.523Z,14.67
2017-10-11T06:51:30.158Z,14.71
2017-10-11T06:54:04.146Z,14.80
2017-10-11T06:56:38.872Z,14.92
2017-10-11T06:59:11.709Z,15.09
2017-10-11T07:04:44.830Z,15.48
2017-10-11T07:10:28.658Z,15.56
2017-10-11T07:13:05.204Z,15.64
2017-10-11T07:15:42.114Z,15.80
2017-10-11T07:18:15.878Z,15.99
2017-10-11T07:23:52.897Z,16.17
2017-10-11T07:26:29.608Z,16.27
2017-10-11T07:29:08.074Z,16.30
2017-10-11T07:31:46.023Z,16.41
2017-10-11T07:34:21.011Z,16.63
2017-10-11T07:36:56.493Z,16.90
2017-10-11T07:39:40.158Z,17.05
2017-10-11T07:42:18.426Z,17.17
2017-10-11T07:44:51.027Z,17.23
2017-10-11T07:47:27.898Z,17.23
2017-10-11T07:50:00.529Z,17.18
2017-10-11T07:55:36.784Z,17.10
2017-10-11T07:58:12.704Z,17.07
2017-10-11T08:00:49.352Z,17.08
2017-10-11T08:03:23.828Z,17.08
2017-10-11T08:05:57.983Z,17.07
2017-10-11T08:08:31.198Z,17.12
2017-10-11T08:14:23.883Z,17.24
2017-10-11T08:17:08.811Z,17.39
2017-10-11T08:19:45.126Z,17.45
2017-10-11T08:22:18.558Z,17.63
2017-10-11T08:24:51.842Z,17.72
2017-10-11T08:27:25.335Z,17.67
2017-10-11T08:32:44.061Z,17.51
2017-10-11T08:35:20.659Z,17.49
2017-10-11T08:37:59.836Z,17.41
2017-10-11T08:46:48.053Z,17.49
2017-10-11T08:54:36.951Z,18.90
2017-10-11T08:57:10.557Z,19.25
2017-10-11T08:59:56.556Z,19.58
2017-10-11T09:02:31.912Z,20.14
2017-10-11T09:05:10.506Z,20.93
2017-10-11T09:07:45.522Z,21.42
2017-10-11T09:13:18.054Z,21.81
2017-10-11T09:18:28.436Z,25.18
2017-10-11T09:21:02.423Z,27.14
2017-10-11T09:23:34.782Z,29.64
2017-10-11T09:26:08.319Z,31.33
2017-10-11T09:28:45.568Z,31.98
2017-10-11T09:37:36.756Z,34.70
2017-10-11T09:40:08.808Z,34.64
2017-10-11T09:42:39.857Z,34.10
2017-10-11T09:45:11.717Z,32.71
2017-10-11T09:47:45.909Z,30.38
2017-10-11T09:50:17.249Z,27.85
2017-10-11T09:52:49.910Z,25.96
2017-10-11T09:55:22.423Z,24.44
2017-10-11T09:57:54.181Z,23.10
2017-10-11T10:00:42.898Z,22.76
2017-10-11T10:03:14.836Z,22.64
2017-10-11T10:05:49.181Z,22.24
2017-10-11T10:08:25.344Z,21.80
2017-10-11T10:11:16.747Z,21.55
2017-10-11T10:16:57.593Z,21.30
2017-10-11T10:19:33.535Z,20.94
2017-10-11T10:22:06.623Z,20.64
2017-10-11T10:24:38.665Z,20.32
2017-10-11T10:27:14.987Z,20.05
2017-10-11T10:29:47.752Z,20.11
2017-10-11T10:32:22.947Z,20.12
2017-10-11T10:34:56.724Z,20.18
2017-10-11T10:37:29.161Z,20.24
2017-10-11T10:40:03.565Z,20.27
2017-10-11T10:42:35.552Z,20.33
2017-10-11T10:45:07.915Z,20.62
2017-10-11T10:47:40.376Z,20.77
2017-10-11T10:50:13.105Z,20.76
2017-10-11T10:52:45.865Z,20.67
2017-10-11T10:55:17.942Z,20.38
2017-10-11T10:57:51.745Z,20.19
2017-10-11T11:00:24.361Z,20.07
2017-10-11T11:02:57.038Z,19.93
2017-10-11T11:05:43.055Z,19.77
2017-10-11T11:08:16.024Z,19.78
2017-10-11T11:10:50.083Z,19.85
2017-10-11T11:13:23.207Z,19.82
2017-10-11T11:15:55.964Z,19.84
2017-10-11T11:18:28.224Z,19.85
2017-10-11T11:21:00.853Z,19.78
2017-10-11T11:23:33.032Z,19.74
2017-10-11T11:26:10.771Z,19.71
2017-10-11T11:28:42.929Z,19.61
2017-10-11T11:31:15.232Z,19.49
2017-10-11T11:33:47.914Z,19.53
2017-10-11T11:36:20.123Z,19.62
2017-10-11T11:38:54.347Z,19.69
2017-10-11T11:41:26.864Z,19.79
2017-10-11T11:43:58.926Z,19.80
2017-10-11T11:46:31.291Z,19.74
2017-10-11T11:49:04.346Z,19.78
2017-10-11T11:51:36.643Z,19.74
2017-10-11T11:54:09.203Z,19.72
2017-10-11T11:56:41.363Z,19.55
2017-10-11T11:59:13.664Z,19.45
2017-10-11T12:01:45.875Z,19.37
2017-10-11T12:04:18.023Z,19.33
2017-10-11T12:06:52.331Z,19.25
2017-10-11T12:09:24.564Z,19.22
2017-10-11T12:11:57.023Z,19.22
2017-10-11T12:14:30.083Z,19.13
2017-10-11T12:17:03.281Z,19.06
2017-10-11T12:19:35.513Z,18.98
2017-10-11T12:22:08.919Z,18.98
2017-10-11T12:24:41.060Z,19.00
2017-10-11T12:27:13.333Z,19.12
2017-10-11T12:29:45.749Z,19.31
2017-10-11T12:32:17.984Z,19.41
2017-10-11T12:34:51.117Z,19.44
2017-10-11T12:37:23.139Z,19.45
2017-10-11T12:39:55.924Z,19.46
2017-10-11T12:42:28.520Z,19.46
2017-10-11T12:45:00.598Z,19.39
2017-10-11T12:47:33.299Z,19.33
2017-10-11T12:50:06.504Z,19.26
2017-10-11T12:52:38.624Z,19.19
2017-10-11T12:55:11.172Z,19.10
2017-10-11T12:57:43.459Z,19.05
2017-10-11T13:00:19.712Z,19.05
2017-10-11T13:03:00.330Z,19.06
2017-10-11T13:05:35.141Z,19.10
2017-10-11T13:08:10.477Z,19.19
2017-10-11T13:10:43.595Z,19.25
2017-10-11T13:13:15.758Z,19.10
2017-10-11T13:15:54.462Z,19.07
2017-10-11T13:21:10.852Z,19.07
2017-10-11T13:23:44.350Z,19.10
2017-10-11T13:26:20.200Z,19.16
2017-10-11T13:28:59.137Z,19.19
2017-10-11T13:31:39.190Z,19.21
2017-10-11T13:34:22.918Z,19.25
2017-10-11T13:36:57.432Z,19.28
2017-10-11T13:39:31.627Z,19.21
2017-10-11T13:42:04.970Z,19.12
2017-10-11T13:44:42.998Z,19.12
2017-10-11T13:47:16.321Z,19.14
2017-10-11T13:52:50.238Z,18.96
2017-10-11T13:55:23.192Z,18.94
2017-10-11T13:57:56.854Z,18.85
2017-10-11T14:00:31.325Z,18.83
2017-10-11T14:03:03.831Z,18.81
2017-10-11T14:05:36.166Z,18.86
2017-10-11T14:08:09.550Z,18.91
2017-10-11T14:10:41.817Z,18.99
2017-10-11T14:13:18.020Z,19.05
2017-10-11T14:15:53.050Z,19.16
2017-10-11T14:18:27.567Z,19.29
2017-10-11T14:21:03.216Z,19.35
2017-10-11T14:23:37.882Z,19.46
2017-10-11T14:26:10.336Z,19.56
2017-10-11T14:28:44.551Z,19.62
2017-10-11T14:31:20.512Z,19.53
2017-10-11T14:33:59.697Z,19.44
2017-10-11T14:36:32.786Z,19.42
2017-10-11T14:39:14.641Z,19.34
2017-10-11T14:41:52.293Z,19.30
2017-10-11T14:44:30.491Z,19.26
2017-10-11T14:47:19.528Z,19.22
2017-10-11T14:49:56.440Z,19.24
2017-10-11T14:52:30.803Z,19.30
2017-10-11T14:55:16.933Z,19.36
2017-10-11T14:57:51.881Z,19.33
2017-10-11T15:00:32.487Z,19.28
2017-10-11T15:03:14.731Z,19.30
2017-10-11T15:05:59.991Z,19.27
2017-10-11T15:08:34.594Z,19.23
2017-10-11T15:11:07.152Z,19.18
2017-10-11T15:13:40.282Z,19.19
2017-10-11T15:16:12.955Z,19.22
2017-10-11T15:18:47.422Z,19.21
2017-10-11T15:21:21.710Z,19.23
2017-10-11T15:23:54.277Z,19.26
2017-10-11T15:26:27.151Z,19.27
2017-10-11T15:28:59.740Z,19.24
2017-10-11T15:31:35.676Z,19.19
2017-10-11T15:34:10.376Z,19.13
2017-10-11T15:36:45.285Z,19.09
2017-10-11T15:39:25.676Z,19.27
2017-10-11T15:42:00.403Z,21.45
2017-10-11T15:50:45.616Z,25.67
2017-10-11T15:53:31.090Z,27.55
2017-10-11T15:56:09.352Z,29.08
2017-10-11T15:58:53.234Z,28.32
2017-10-11T16:01:26.542Z,25.86
2017-10-11T16:03:57.768Z,23.91
2017-10-11T16:06:29.569Z,22.59
2017-10-11T16:09:00.700Z,21.71
2017-10-11T16:11:37.452Z,21.05
2017-10-11T16:17:18.043Z,20.10
2017-10-11T16:23:04.828Z,19.41
2017-10-11T16:25:37.082Z,19.17
2017-10-11T16:28:09.564Z,18.95
2017-10-11T16:30:43.887Z,18.73
2017-10-11T16:33:16.212Z,18.56
2017-10-11T16:35:48.218Z,18.38
2017-10-11T16:38:22.543Z,18.22
2017-10-11T16:40:55.066Z,18.07
2017-10-11T16:43:29.257Z,17.93
2017-10-11T16:46:03.871Z,17.78
2017-10-11T16:48:38.441Z,17.65
2017-10-11T16:51:12.976Z,17.52
2017-10-11T16:53:47.086Z,17.40
2017-10-11T16:56:20.998Z,17.31
2017-10-11T16:58:54.802Z,17.20
2017-10-11T17:01:27.669Z,17.11
2017-10-11T17:04:02.895Z,17.02
2017-10-11T17:06:37.524Z,16.94
2017-10-11T17:09:10.853Z,16.86
2017-10-11T17:11:44.158Z,16.78
2017-10-11T17:14:18.236Z,16.72
2017-10-11T17:16:52.162Z,16.70
2017-10-11T17:19:27.475Z,16.64
2017-10-11T17:22:05.916Z,16.58
2017-10-11T17:24:39.713Z,16.54
2017-10-11T17:27:13.715Z,16.49
2017-10-11T17:29:46.923Z,16.46
2017-10-11T17:32:22.809Z,16.42
2017-10-11T17:34:57.864Z,16.40
2017-10-11T17:37:33.849Z,16.39
2017-10-11T17:40:09.725Z,16.37
2017-10-11T17:42:45.619Z,16.35
2017-10-11T17:45:20.244Z,16.32
2017-10-11T17:47:52.606Z,16.29
2017-10-11T17:50:27.253Z,16.26
2017-10-11T17:53:00.462Z,16.23
2017-10-11T17:55:32.845Z,16.20
2017-10-11T17:58:07.502Z,16.16
2017-10-11T18:00:40.212Z,16.12
2017-10-11T18:03:14.257Z,16.13
2017-10-11T18:05:47.342Z,16.13
2017-10-11T18:08:19.930Z,16.11
2017-10-11T18:10:53.471Z,16.07
2017-10-11T18:13:26.460Z,16.04
2017-10-11T18:16:02.887Z,16.03
2017-10-11T18:18:36.147Z,16.00
2017-10-11T18:21:09.984Z,15.97
2017-10-11T18:23:42.552Z,15.95
2017-10-11T18:26:18.362Z,15.92
2017-10-11T18:28:50.488Z,15.89
2017-10-11T18:31:27.145Z,15.85
2017-10-11T18:34:01.449Z,15.83
2017-10-11T18:36:36.719Z,15.79
2017-10-11T18:39:08.745Z,15.77
2017-10-11T18:41:41.220Z,15.74
2017-10-11T18:44:16.268Z,15.72
2017-10-11T18:46:51.520Z,15.68
2017-10-11T18:49:38.480Z,15.63
2017-10-11T18:52:13.370Z,15.61
2017-10-11T18:54:48.272Z,15.59
2017-10-11T18:57:21.952Z,15.55
2017-10-11T18:59:55.337Z,15.52
2017-10-11T19:02:40.621Z,15.47
2017-10-11T19:05:16.215Z,15.42
2017-10-11T19:07:50.142Z,15.37
2017-10-11T19:10:24.584Z,15.35
2017-10-11T19:12:56.765Z,15.32
2017-10-11T19:18:20.391Z,15.25
2017-10-11T19:20:52.786Z,15.20
2017-10-11T19:23:27.789Z,15.18
2017-10-11T19:26:06.604Z,15.18
2017-10-11T19:28:43.150Z,15.16
2017-10-11T19:31:15.905Z,15.14
2017-10-11T19:33:48.607Z,15.13
2017-10-11T19:36:24.693Z,15.14
2017-10-11T19:38:58.710Z,15.14
2017-10-11T19:41:32.663Z,15.13
2017-10-11T19:44:11.717Z,15.12
2017-10-11T19:46:44.630Z,15.12
2017-10-11T19:49:26.263Z,15.11
2017-10-11T19:52:04.608Z,15.11
2017-10-11T19:54:38.246Z,15.10
2017-10-11T19:57:18.795Z,15.07
2017-10-11T20:00:08.022Z,15.08
2017-10-11T20:02:47.272Z,15.05
2017-10-11T20:05:23.726Z,15.03
2017-10-11T20:07:58.217Z,15.01
2017-10-11T20:10:31.263Z,15.02
2017-10-11T20:13:06.084Z,15.01
2017-10-11T20:15:42.342Z,15.00
2017-10-11T20:18:16.623Z,15.00
2017-10-11T20:20:57.316Z,14.97
2017-10-11T20:23:37.548Z,14.93
2017-10-11T20:26:15.603Z,14.93
2017-10-11T20:28:52.202Z,14.91
2017-10-11T20:31:28.244Z,14.89
2017-10-11T20:34:07.025Z,14.86
2017-10-11T20:36:41.483Z,14.80
2017-10-11T20:39:18.228Z,14.78
2017-10-11T20:41:52.446Z,14.74
2017-10-11T20:44:26.786Z,14.69
2017-10-11T20:47:03.842Z,14.66
2017-10-11T20:49:38.106Z,14.67
2017-10-11T20:52:17.526Z,14.67
2017-10-11T20:54:56.071Z,14.69
2017-10-11T20:57:32.317Z,14.72
2017-10-11T21:00:13.437Z,14.77
2017-10-11T21:02:47.856Z,14.85
2017-10-11T21:05:23.822Z,14.94
2017-10-11T21:07:57.882Z,14.99
2017-10-11T21:10:30.612Z,15.04
2017-10-11T21:13:06.095Z,15.07
2017-10-11T21:15:39.196Z,15.09
2017-10-11T21:18:21.186Z,15.13
2017-10-11T21:20:56.062Z,15.17
2017-10-11T21:26:02.610Z,15.22
2017-10-11T21:28:34.667Z,15.22
2017-10-11T21:31:07.132Z,15.21
2017-10-11T21:33:39.382Z,15.22
2017-10-11T21:36:11.836Z,15.20
2017-10-11T21:38:43.860Z,15.17
2017-10-11T21:41:16.132Z,15.12
2017-10-11T21:43:48.791Z,15.09
2017-10-11T21:46:21.759Z,15.07
2017-10-11T21:48:54.004Z,15.05
2017-10-11T21:51:26.429Z,15.07
2017-10-11T21:53:58.484Z,15.08
2017-10-11T21:56:30.811Z,15.11
2017-10-11T21:59:03.256Z,15.13
2017-10-11T22:01:35.505Z,15.20
2017-10-11T22:04:07.471Z,15.28
2017-10-11T22:06:39.552Z,15.35
2017-10-11T22:09:11.520Z,15.41
2017-10-11T22:11:44.222Z,15.46
2017-10-11T22:14:16.537Z,15.52
2017-10-11T22:16:48.611Z,15.57
2017-10-11T22:19:21.831Z,15.61
2017-10-11T22:21:54.268Z,15.63
2017-10-11T22:24:26.792Z,15.60
2017-10-11T22:26:59.295Z,15.56
2017-10-11T22:29:31.301Z,15.53
2017-10-11T22:32:05.707Z,15.45
2017-10-11T22:34:38.092Z,15.39
2017-10-11T22:37:11.390Z,15.29
2017-10-11T22:39:43.362Z,15.22
2017-10-11T22:42:17.420Z,15.15
2017-10-11T22:44:49.760Z,15.12
2017-10-11T22:47:24.586Z,15.15
2017-10-11T22:49:56.925Z,15.23
2017-10-11T22:52:29.785Z,15.30
2017-10-11T22:55:02.837Z,15.36
2017-10-11T22:57:35.080Z,15.39
2017-10-11T23:00:08.987Z,15.41
2017-10-11T23:02:41.033Z,15.43
2017-10-11T23:05:14.270Z,15.42
2017-10-11T23:07:47.229Z,15.44
2017-10-11T23:10:19.749Z,15.47
2017-10-11T23:12:52.054Z,15.50
2017-10-11T23:15:24.845Z,15.51
2017-10-11T23:17:57.032Z,15.54
2017-10-11T23:20:29.404Z,15.55
2017-10-11T23:23:02.809Z,15.56
2017-10-11T23:25:35.545Z,15.57
2017-10-11T23:28:07.656Z,15.57
2017-10-11T23:30:39.649Z,15.57
2017-10-11T23:33:12.215Z,15.57
2017-10-11T23:35:44.338Z,15.56
2017-10-11T23:38:16.681Z,15.55
2017-10-11T23:40:48.917Z,15.55
2017-10-11T23:43:22.137Z,15.55
2017-10-11T23:45:54.533Z,15.56
2017-10-11T23:48:27.238Z,15.55
2017-10-11T23:50:59.280Z,15.56
2017-10-11T23:53:31.595Z,15.56
2017-10-11T23:56:04.741Z,15.55
2017-10-11T23:58:37.026Z,15.52
